KITH/ITH METAR and TAF weather

Enter ICAO airport designator
Station Type Date Time Source
KITH METAR 2022/06/25 22:56 UTC NOAA

KITH 252256Z 14006KT 10SM CLR 30/15 A3010 RMK AO2 SLP184 T03000150 $


Station Type Date Time Source
KITH Decoded METAR 2022/06/25 22:56 UTC NOAA

Ithaca, Ithaca Tompkins Regional Airport, NY, United States (KITH) 42-29-27N 076-27-30W
Jun 25, 2022 - 06:56 PM EDT / 2022.06.25 2256 UTC
Wind: from the SE (140 degrees) at 7 MPH (6 KT):0
Visibility: 10 mile(s):0
Sky conditions: clear
Temperature: 86.0 F (30.0 C)
Dew Point: 59.0 F (15.0 C)
Relative Humidity: 40%
Pressure (altimeter): 30.1 in. Hg (1019 hPa)
ob: KITH 252256Z 14006KT 10SM CLR 30/15 A3010 RMK AO2 SLP184 T03000150
cycle: 23

Station Type Date Time Source
KITH TAF 2022/06/25 18:22 UTC NOAA

TAF KITH 251720Z 2518/2618 VRB05KT P6SM FEW060
FM260000 14005KT P6SM FEW250
FM261400 19008KT P6SM SCT250

Example: see airport list